Airfield :
LOGIN :

Register | Disclaimer

   EN    FR    IT 

 










Legend :    VFR   Marginal VFR   IFR   Intensive IFR   Very Intensive IFR
Visi :
Ceiling :
>= 8 km
>= 3000ft
5 to 8 km
1000 to 3000 ft
1500m to 5 km
500 to 1000 ft
800 to 1500m
200 to 500 ft
< 800m
< 200 ft
Symbols :   Thunderstorms  Fog  Heavy snow  Heavy precipitations  Wind > 20 kt
SIGMETs :     Misc.  Thunderstorms  Icing  Turbulence  Mountain Waves  Volcanic Ashes






- Airport Elevation : 278 ft
- IATA code : RJK


LDRI - Rijeka

CURRENT METAR :
  • 050030Z 12006KT 9999 BKN040 10/07 Q1018

EXPIRED METARs :
  • 050000Z 13007KT 9999 BKN040 09/07 Q1018
  • 042330Z 12005KT 9999 BKN040 09/08 Q1018
  • 042300Z 12004KT 9999 BKN040 10/08 Q1019
  • 042230Z 12005KT 9999 BKN040 10/08 Q1019
  • 042200Z 13003KT 9999 BKN040 10/07 Q1019

TAF TAF LDRI
Valid from the 05 at 00:00 until the 06 at 00:00 UTC


042325Z 0500/0600 12005KT 9999 SCT010 BKN030 TX14/0514Z TN07/0523Z
PROB30
TEMPO 0512/0516 30006KT FEW040TCU
PROB30
TEMPO 0518/0521 RA
BECMG 0519/0521 05015KT
TEMPO 0520/0600 05025G38KT



MET'MAP, your aeronautical weather chart ! - Copyright ORBIFLY December 2007 - Disclaimer

ORBIFLY MET'MAP TEAM :

Programming & Development : Alexandra Zaïnal
Concept & original design : Baudouin d'Aumeries
Assistance for programming : Marc-Olivier Méhu
Technical & hardware support : Manuel Goepfert

Contact : metmap@orbifly.com




SOURCES & CREDITS :

   NOAA